sensor_id;sensor_type;location;lat;lon;timestamp;P1;durP1;ratioP1;P2;durP2;ratioP2
29504;SDS011;16452;54.174;12.092;2022-08-16T00:00:12;9.98;;;7.15;;
29504;SDS011;16452;54.174;12.092;2022-08-16T00:02:40;10.00;;;7.55;;
29504;SDS011;16452;54.174;12.092;2022-08-16T00:05:08;12.85;;;7.93;;
29504;SDS011;16452;54.174;12.092;2022-08-16T00:07:36;8.95;;;6.78;;
29504;SDS011;16452;54.174;12.092;2022-08-16T00:10:03;8.52;;;6.80;;
29504;SDS011;16452;54.174;12.092;2022-08-16T00:12:32;8.07;;;6.85;;
29504;SDS011;16452;54.174;12.092;2022-08-16T00:14:59;10.50;;;7.53;;
29504;SDS011;16452;54.174;12.092;2022-08-16T00:17:29;8.23;;;7.10;;
29504;SDS011;16452;54.174;12.092;2022-08-16T00:19:55;12.20;;;7.07;;
29504;SDS011;16452;54.174;12.092;2022-08-16T00:22:21;8.23;;;7.00;;
29504;SDS011;16452;54.174;12.092;2022-08-16T00:24:48;8.30;;;6.97;;
29504;SDS011;16452;54.174;12.092;2022-08-16T00:27:14;9.82;;;7.20;;
29504;SDS011;16452;54.174;12.092;2022-08-16T00:29:40;11.05;;;7.30;;
29504;SDS011;16452;54.174;12.092;2022-08-16T00:32:06;8.98;;;6.88;;
29504;SDS011;16452;54.174;12.092;2022-08-16T00:34:34;8.27;;;7.20;;
29504;SDS011;16452;54.174;12.092;2022-08-16T00:37:02;9.60;;;7.88;;
29504;SDS011;16452;54.174;12.092;2022-08-16T00:39:28;7.88;;;6.95;;
29504;SDS011;16452;54.174;12.092;2022-08-16T00:41:54;8.52;;;7.30;;
29504;SDS011;16452;54.174;12.092;2022-08-16T00:44:20;10.40;;;7.40;;
29504;SDS011;16452;54.174;12.092;2022-08-16T00:46:54;9.40;;;7.93;;
29504;SDS011;16452;54.174;12.092;2022-08-16T00:49:30;9.15;;;7.63;;
29504;SDS011;16452;54.174;12.092;2022-08-16T00:51:57;8.77;;;7.70;;
29504;SDS011;16452;54.174;12.092;2022-08-16T00:54:24;11.93;;;8.30;;
29504;SDS011;16452;54.174;12.092;2022-08-16T00:56:53;8.38;;;7.30;;
29504;SDS011;16452;54.174;12.092;2022-08-16T00:59:23;9.07;;;8.15;;
29504;SDS011;16452;54.174;12.092;2022-08-16T01:01:52;11.40;;;7.35;;
29504;SDS011;16452;54.174;12.092;2022-08-16T01:04:21;9.15;;;7.78;;
29504;SDS011;16452;54.174;12.092;2022-08-16T01:06:50;10.38;;;8.65;;
29504;SDS011;16452;54.174;12.092;2022-08-16T01:09:16;11.73;;;8.15;;
29504;SDS011;16452;54.174;12.092;2022-08-16T01:11:44;9.20;;;7.82;;
29504;SDS011;16452;54.174;12.092;2022-08-16T01:14:16;11.73;;;7.70;;
29504;SDS011;16452;54.174;12.092;2022-08-16T01:16:49;9.13;;;8.15;;
29504;SDS011;16452;54.174;12.092;2022-08-16T01:19:35;12.95;;;8.50;;
29504;SDS011;16452;54.174;12.092;2022-08-16T01:25:33;11.20;;;8.63;;
29504;SDS011;16452;54.174;12.092;2022-08-16T01:28:06;13.15;;;9.57;;
29504;SDS011;16452;54.174;12.092;2022-08-16T01:30:39;10.95;;;8.98;;
29504;SDS011;16452;54.174;12.092;2022-08-16T01:33:08;10.38;;;8.52;;
29504;SDS011;16452;54.174;12.092;2022-08-16T01:41:02;9.30;;;8.30;;
29504;SDS011;16452;54.174;12.092;2022-08-16T01:43:41;15.90;;;8.80;;
29504;SDS011;16452;54.174;12.092;2022-08-16T01:46:30;11.85;;;9.07;;
29504;SDS011;16452;54.174;12.092;2022-08-16T01:49:06;10.30;;;9.00;;
29504;SDS011;16452;54.174;12.092;2022-08-16T01:51:40;14.38;;;8.98;;
29504;SDS011;16452;54.174;12.092;2022-08-16T01:54:08;11.73;;;9.45;;
29504;SDS011;16452;54.174;12.092;2022-08-16T01:56:34;10.13;;;8.88;;
29504;SDS011;16452;54.174;12.092;2022-08-16T01:59:02;11.18;;;9.05;;
29504;SDS011;16452;54.174;12.092;2022-08-16T02:01:31;9.93;;;8.75;;
29504;SDS011;16452;54.174;12.092;2022-08-16T02:03:58;12.02;;;8.60;;
29504;SDS011;16452;54.174;12.092;2022-08-16T02:06:25;14.90;;;9.23;;
29504;SDS011;16452;54.174;12.092;2022-08-16T02:08:52;10.38;;;9.30;;
29504;SDS011;16452;54.174;12.092;2022-08-16T02:11:22;10.75;;;9.65;;
29504;SDS011;16452;54.174;12.092;2022-08-16T02:13:49;12.15;;;9.43;;
29504;SDS011;16452;54.174;12.092;2022-08-16T02:16:15;9.95;;;8.98;;
29504;SDS011;16452;54.174;12.092;2022-08-16T02:18:42;10.75;;;8.98;;
29504;SDS011;16452;54.174;12.092;2022-08-16T02:21:07;11.18;;;9.25;;
29504;SDS011;16452;54.174;12.092;2022-08-16T02:23:35;12.18;;;9.00;;
29504;SDS011;16452;54.174;12.092;2022-08-16T02:26:02;10.18;;;8.90;;
29504;SDS011;16452;54.174;12.092;2022-08-16T02:28:29;12.32;;;9.00;;
29504;SDS011;16452;54.174;12.092;2022-08-16T02:30:56;13.98;;;9.65;;
29504;SDS011;16452;54.174;12.092;2022-08-16T02:33:26;11.15;;;9.57;;
29504;SDS011;16452;54.174;12.092;2022-08-16T02:35:52;11.95;;;8.75;;
29504;SDS011;16452;54.174;12.092;2022-08-16T02:38:18;12.20;;;9.20;;
29504;SDS011;16452;54.174;12.092;2022-08-16T02:40:43;13.13;;;9.55;;
29504;SDS011;16452;54.174;12.092;2022-08-16T02:43:09;11.30;;;10.13;;
29504;SDS011;16452;54.174;12.092;2022-08-16T02:45:35;12.82;;;10.02;;
29504;SDS011;16452;54.174;12.092;2022-08-16T02:48:01;12.25;;;9.07;;
29504;SDS011;16452;54.174;12.092;2022-08-16T02:50:30;11.55;;;9.75;;
29504;SDS011;16452;54.174;12.092;2022-08-16T02:52:56;10.93;;;9.70;;
29504;SDS011;16452;54.174;12.092;2022-08-16T02:55:21;10.80;;;9.50;;
29504;SDS011;16452;54.174;12.092;2022-08-16T02:57:47;13.18;;;9.88;;
29504;SDS011;16452;54.174;12.092;2022-08-16T03:00:14;11.07;;;9.65;;
29504;SDS011;16452;54.174;12.092;2022-08-16T03:02:41;11.45;;;9.63;;
29504;SDS011;16452;54.174;12.092;2022-08-16T03:05:10;11.13;;;9.52;;
29504;SDS011;16452;54.174;12.092;2022-08-16T03:07:39;11.13;;;9.90;;
29504;SDS011;16452;54.174;12.092;2022-08-16T03:10:08;11.02;;;9.82;;
29504;SDS011;16452;54.174;12.092;2022-08-16T03:12:36;14.32;;;10.10;;
29504;SDS011;16452;54.174;12.092;2022-08-16T03:15:04;12.57;;;9.98;;
29504;SDS011;16452;54.174;12.092;2022-08-16T03:17:33;11.65;;;10.00;;
29504;SDS011;16452;54.174;12.092;2022-08-16T03:19:59;11.75;;;9.50;;
29504;SDS011;16452;54.174;12.092;2022-08-16T03:22:26;11.98;;;9.98;;
29504;SDS011;16452;54.174;12.092;2022-08-16T03:24:52;11.68;;;10.23;;
29504;SDS011;16452;54.174;12.092;2022-08-16T03:27:18;11.68;;;9.80;;
29504;SDS011;16452;54.174;12.092;2022-08-16T03:29:44;10.93;;;9.82;;
29504;SDS011;16452;54.174;12.092;2022-08-16T03:32:10;13.77;;;10.00;;
29504;SDS011;16452;54.174;12.092;2022-08-16T03:34:36;13.98;;;10.48;;
29504;SDS011;16452;54.174;12.092;2022-08-16T03:37:01;12.30;;;9.60;;
29504;SDS011;16452;54.174;12.092;2022-08-16T03:39:28;13.20;;;10.10;;
29504;SDS011;16452;54.174;12.092;2022-08-16T03:41:54;11.88;;;10.40;;
29504;SDS011;16452;54.174;12.092;2022-08-16T03:44:20;11.98;;;9.93;;
29504;SDS011;16452;54.174;12.092;2022-08-16T03:46:45;14.05;;;10.50;;
29504;SDS011;16452;54.174;12.092;2022-08-16T03:49:11;12.27;;;10.38;;
29504;SDS011;16452;54.174;12.092;2022-08-16T03:51:39;13.65;;;10.15;;
29504;SDS011;16452;54.174;12.092;2022-08-16T03:54:06;13.43;;;10.95;;
29504;SDS011;16452;54.174;12.092;2022-08-16T03:56:32;14.18;;;11.13;;
29504;SDS011;16452;54.174;12.092;2022-08-16T03:58:58;12.88;;;10.13;;
29504;SDS011;16452;54.174;12.092;2022-08-16T04:01:24;10.45;;;9.45;;
29504;SDS011;16452;54.174;12.092;2022-08-16T04:03:51;12.95;;;9.90;;
29504;SDS011;16452;54.174;12.092;2022-08-16T04:06:18;13.88;;;10.95;;
29504;SDS011;16452;54.174;12.092;2022-08-16T04:08:45;12.52;;;10.73;;
29504;SDS011;16452;54.174;12.092;2022-08-16T04:11:12;12.48;;;10.70;;
29504;SDS011;16452;54.174;12.092;2022-08-16T04:13:38;11.05;;;9.93;;
29504;SDS011;16452;54.174;12.092;2022-08-16T04:16:04;11.60;;;9.85;;
29504;SDS011;16452;54.174;12.092;2022-08-16T04:18:31;14.93;;;10.55;;
29504;SDS011;16452;54.174;12.092;2022-08-16T04:20:57;10.98;;;9.88;;
29504;SDS011;16452;54.174;12.092;2022-08-16T04:23:22;11.98;;;10.20;;
29504;SDS011;16452;54.174;12.092;2022-08-16T04:25:48;12.77;;;9.48;;
29504;SDS011;16452;54.174;12.092;2022-08-16T04:28:15;11.75;;;10.13;;
29504;SDS011;16452;54.174;12.092;2022-08-16T04:30:41;11.48;;;10.18;;
29504;SDS011;16452;54.174;12.092;2022-08-16T04:33:07;12.90;;;10.50;;
29504;SDS011;16452;54.174;12.092;2022-08-16T04:35:33;10.68;;;9.52;;
29504;SDS011;16452;54.174;12.092;2022-08-16T04:38:02;12.65;;;10.38;;
29504;SDS011;16452;54.174;12.092;2022-08-16T04:40:29;11.50;;;9.73;;
29504;SDS011;16452;54.174;12.092;2022-08-16T04:42:55;12.18;;;10.75;;
29504;SDS011;16452;54.174;12.092;2022-08-16T04:45:20;11.52;;;10.07;;
29504;SDS011;16452;54.174;12.092;2022-08-16T04:47:48;14.07;;;10.50;;
29504;SDS011;16452;54.174;12.092;2022-08-16T04:50:15;12.07;;;10.57;;
29504;SDS011;16452;54.174;12.092;2022-08-16T04:52:45;13.60;;;11.05;;
29504;SDS011;16452;54.174;12.092;2022-08-16T04:55:15;14.50;;;11.07;;
29504;SDS011;16452;54.174;12.092;2022-08-16T04:57:45;13.13;;;10.30;;
29504;SDS011;16452;54.174;12.092;2022-08-16T05:00:15;11.57;;;10.38;;
29504;SDS011;16452;54.174;12.092;2022-08-16T05:02:47;11.45;;;10.27;;
29504;SDS011;16452;54.174;12.092;2022-08-16T05:05:15;13.05;;;10.35;;
29504;SDS011;16452;54.174;12.092;2022-08-16T05:07:42;11.63;;;9.45;;
29504;SDS011;16452;54.174;12.092;2022-08-16T05:10:08;10.43;;;9.00;;
29504;SDS011;16452;54.174;12.092;2022-08-16T05:12:34;11.25;;;9.48;;
29504;SDS011;16452;54.174;12.092;2022-08-16T05:15:00;10.40;;;9.40;;
29504;SDS011;16452;54.174;12.092;2022-08-16T05:17:27;13.35;;;9.85;;
29504;SDS011;16452;54.174;12.092;2022-08-16T05:19:53;12.05;;;9.27;;
29504;SDS011;16452;54.174;12.092;2022-08-16T05:22:19;10.20;;;8.65;;
29504;SDS011;16452;54.174;12.092;2022-08-16T05:24:44;12.23;;;9.10;;
29504;SDS011;16452;54.174;12.092;2022-08-16T05:27:10;11.10;;;9.48;;
29504;SDS011;16452;54.174;12.092;2022-08-16T05:29:36;10.45;;;9.02;;
29504;SDS011;16452;54.174;12.092;2022-08-16T05:32:02;11.30;;;7.90;;
29504;SDS011;16452;54.174;12.092;2022-08-16T05:34:29;8.88;;;8.00;;
29504;SDS011;16452;54.174;12.092;2022-08-16T05:36:58;12.40;;;8.23;;
29504;SDS011;16452;54.174;12.092;2022-08-16T05:39:24;9.07;;;7.97;;
29504;SDS011;16452;54.174;12.092;2022-08-16T05:41:51;9.13;;;8.23;;
29504;SDS011;16452;54.174;12.092;2022-08-16T05:44:18;8.90;;;8.07;;
29504;SDS011;16452;54.174;12.092;2022-08-16T05:46:47;12.40;;;8.55;;
29504;SDS011;16452;54.174;12.092;2022-08-16T05:49:14;9.32;;;8.35;;
29504;SDS011;16452;54.174;12.092;2022-08-16T05:51:43;13.02;;;7.97;;
29504;SDS011;16452;54.174;12.092;2022-08-16T05:54:11;9.20;;;8.23;;
29504;SDS011;16452;54.174;12.092;2022-08-16T05:56:41;9.88;;;8.93;;
29504;SDS011;16452;54.174;12.092;2022-08-16T05:59:12;11.50;;;8.55;;
29504;SDS011;16452;54.174;12.092;2022-08-16T06:01:40;10.88;;;8.07;;
29504;SDS011;16452;54.174;12.092;2022-08-16T06:04:11;9.23;;;8.30;;
29504;SDS011;16452;54.174;12.092;2022-08-16T06:06:38;9.68;;;8.05;;
29504;SDS011;16452;54.174;12.092;2022-08-16T06:09:06;11.25;;;8.00;;
29504;SDS011;16452;54.174;12.092;2022-08-16T06:11:31;10.00;;;7.68;;
29504;SDS011;16452;54.174;12.092;2022-08-16T06:13:57;8.75;;;7.65;;
29504;SDS011;16452;54.174;12.092;2022-08-16T06:16:23;9.30;;;7.78;;
29504;SDS011;16452;54.174;12.092;2022-08-16T06:18:49;9.63;;;8.30;;
29504;SDS011;16452;54.174;12.092;2022-08-16T06:21:14;8.93;;;8.02;;
29504;SDS011;16452;54.174;12.092;2022-08-16T06:23:40;9.10;;;7.90;;
29504;SDS011;16452;54.174;12.092;2022-08-16T06:26:06;9.55;;;8.63;;
29504;SDS011;16452;54.174;12.092;2022-08-16T06:28:32;13.07;;;9.02;;
29504;SDS011;16452;54.174;12.092;2022-08-16T06:30:58;8.98;;;8.07;;
29504;SDS011;16452;54.174;12.092;2022-08-16T06:33:24;12.10;;;8.70;;
29504;SDS011;16452;54.174;12.092;2022-08-16T06:35:51;10.07;;;8.32;;
29504;SDS011;16452;54.174;12.092;2022-08-16T06:38:22;9.82;;;8.60;;
29504;SDS011;16452;54.174;12.092;2022-08-16T06:40:54;8.93;;;8.05;;
29504;SDS011;16452;54.174;12.092;2022-08-16T06:43:20;10.60;;;8.25;;
29504;SDS011;16452;54.174;12.092;2022-08-16T06:45:46;10.00;;;8.20;;
29504;SDS011;16452;54.174;12.092;2022-08-16T06:48:13;9.65;;;8.75;;
29504;SDS011;16452;54.174;12.092;2022-08-16T06:50:39;10.73;;;8.35;;
29504;SDS011;16452;54.174;12.092;2022-08-16T06:53:05;9.18;;;8.32;;
29504;SDS011;16452;54.174;12.092;2022-08-16T06:55:31;12.13;;;8.30;;
29504;SDS011;16452;54.174;12.092;2022-08-16T06:57:59;9.32;;;8.07;;
29504;SDS011;16452;54.174;12.092;2022-08-16T07:00:25;9.63;;;8.63;;
29504;SDS011;16452;54.174;12.092;2022-08-16T07:02:51;9.77;;;8.75;;
29504;SDS011;16452;54.174;12.092;2022-08-16T07:05:17;15.32;;;9.40;;
29504;SDS011;16452;54.174;12.092;2022-08-16T07:07:44;9.73;;;8.73;;
29504;SDS011;16452;54.174;12.092;2022-08-16T07:10:13;13.45;;;8.65;;
29504;SDS011;16452;54.174;12.092;2022-08-16T07:12:41;13.23;;;9.73;;
29504;SDS011;16452;54.174;12.092;2022-08-16T07:15:08;9.65;;;8.35;;
29504;SDS011;16452;54.174;12.092;2022-08-16T07:17:35;10.48;;;8.30;;
29504;SDS011;16452;54.174;12.092;2022-08-16T07:20:02;10.98;;;8.60;;
29504;SDS011;16452;54.174;12.092;2022-08-16T07:22:31;9.02;;;8.13;;
29504;SDS011;16452;54.174;12.092;2022-08-16T07:24:57;11.73;;;7.78;;
29504;SDS011;16452;54.174;12.092;2022-08-16T07:27:24;9.52;;;8.05;;
29504;SDS011;16452;54.174;12.092;2022-08-16T07:29:49;10.65;;;8.55;;
29504;SDS011;16452;54.174;12.092;2022-08-16T07:32:15;12.68;;;8.50;;
29504;SDS011;16452;54.174;12.092;2022-08-16T07:34:43;9.80;;;8.25;;
29504;SDS011;16452;54.174;12.092;2022-08-16T07:37:09;11.35;;;8.55;;
29504;SDS011;16452;54.174;12.092;2022-08-16T07:39:35;9.90;;;7.80;;
29504;SDS011;16452;54.174;12.092;2022-08-16T07:42:02;9.70;;;7.68;;
29504;SDS011;16452;54.174;12.092;2022-08-16T07:44:29;9.80;;;8.32;;
29504;SDS011;16452;54.174;12.092;2022-08-16T07:46:54;10.82;;;7.38;;
29504;SDS011;16452;54.174;12.092;2022-08-16T07:49:20;8.85;;;7.95;;
29504;SDS011;16452;54.174;12.092;2022-08-16T07:52:26;8.85;;;7.63;;
29504;SDS011;16452;54.174;12.092;2022-08-16T07:54:52;8.93;;;8.02;;
29504;SDS011;16452;54.174;12.092;2022-08-16T07:57:18;10.43;;;8.27;;
29504;SDS011;16452;54.174;12.092;2022-08-16T07:59:44;9.85;;;8.35;;
29504;SDS011;16452;54.174;12.092;2022-08-16T08:02:10;12.07;;;7.82;;
29504;SDS011;16452;54.174;12.092;2022-08-16T08:04:38;9.18;;;8.20;;
29504;SDS011;16452;54.174;12.092;2022-08-16T08:07:04;9.98;;;8.07;;
29504;SDS011;16452;54.174;12.092;2022-08-16T08:09:31;12.05;;;9.05;;
29504;SDS011;16452;54.174;12.092;2022-08-16T08:11:57;12.90;;;8.05;;
29504;SDS011;16452;54.174;12.092;2022-08-16T08:14:23;11.50;;;8.90;;
29504;SDS011;16452;54.174;12.092;2022-08-16T08:16:49;10.88;;;8.60;;
29504;SDS011;16452;54.174;12.092;2022-08-16T08:19:15;11.05;;;9.18;;
29504;SDS011;16452;54.174;12.092;2022-08-16T08:21:41;10.40;;;9.30;;
29504;SDS011;16452;54.174;12.092;2022-08-16T08:24:08;12.30;;;8.85;;
29504;SDS011;16452;54.174;12.092;2022-08-16T08:26:36;16.38;;;10.20;;
29504;SDS011;16452;54.174;12.092;2022-08-16T08:29:03;10.82;;;9.00;;
29504;SDS011;16452;54.174;12.092;2022-08-16T08:31:29;13.98;;;9.52;;
29504;SDS011;16452;54.174;12.092;2022-08-16T08:33:55;13.65;;;8.75;;
29504;SDS011;16452;54.174;12.092;2022-08-16T08:36:24;10.98;;;9.02;;
29504;SDS011;16452;54.174;12.092;2022-08-16T08:38:54;14.60;;;9.23;;
29504;SDS011;16452;54.174;12.092;2022-08-16T08:41:20;14.77;;;8.45;;
29504;SDS011;16452;54.174;12.092;2022-08-16T08:43:47;10.77;;;9.60;;
29504;SDS011;16452;54.174;12.092;2022-08-16T08:46:13;11.75;;;8.13;;
29504;SDS011;16452;54.174;12.092;2022-08-16T08:48:39;8.55;;;7.75;;
29504;SDS011;16452;54.174;12.092;2022-08-16T08:51:06;21.13;;;18.83;;
29504;SDS011;16452;54.174;12.092;2022-08-16T08:53:33;12.63;;;11.05;;
29504;SDS011;16452;54.174;12.092;2022-08-16T08:56:00;10.65;;;9.55;;
29504;SDS011;16452;54.174;12.092;2022-08-16T08:58:31;12.63;;;9.70;;
29504;SDS011;16452;54.174;12.092;2022-08-16T09:00:58;10.45;;;8.82;;
29504;SDS011;16452;54.174;12.092;2022-08-16T09:03:24;10.32;;;9.00;;
29504;SDS011;16452;54.174;12.092;2022-08-16T09:05:50;17.30;;;8.45;;
29504;SDS011;16452;54.174;12.092;2022-08-16T09:08:17;11.85;;;9.15;;
29504;SDS011;16452;54.174;12.092;2022-08-16T09:10:43;13.30;;;9.27;;
29504;SDS011;16452;54.174;12.092;2022-08-16T09:13:09;11.60;;;9.25;;
29504;SDS011;16452;54.174;12.092;2022-08-16T09:15:35;11.60;;;9.00;;
29504;SDS011;16452;54.174;12.092;2022-08-16T09:18:01;11.43;;;7.70;;
29504;SDS011;16452;54.174;12.092;2022-08-16T09:20:29;13.27;;;9.07;;
29504;SDS011;16452;54.174;12.092;2022-08-16T09:22:55;14.77;;;8.63;;
29504;SDS011;16452;54.174;12.092;2022-08-16T09:25:23;9.55;;;8.50;;
29504;SDS011;16452;54.174;12.092;2022-08-16T09:27:50;16.15;;;10.52;;
29504;SDS011;16452;54.174;12.092;2022-08-16T09:30:16;15.48;;;9.25;;
29504;SDS011;16452;54.174;12.092;2022-08-16T09:32:42;11.93;;;10.50;;
29504;SDS011;16452;54.174;12.092;2022-08-16T09:35:08;11.50;;;9.93;;
29504;SDS011;16452;54.174;12.092;2022-08-16T09:37:34;12.30;;;11.10;;
29504;SDS011;16452;54.174;12.092;2022-08-16T09:40:00;12.05;;;10.40;;
29504;SDS011;16452;54.174;12.092;2022-08-16T09:42:27;12.18;;;10.98;;
29504;SDS011;16452;54.174;12.092;2022-08-16T09:44:53;13.98;;;12.25;;
29504;SDS011;16452;54.174;12.092;2022-08-16T09:47:19;24.20;;;14.23;;
29504;SDS011;16452;54.174;12.092;2022-08-16T09:49:46;14.35;;;10.95;;
29504;SDS011;16452;54.174;12.092;2022-08-16T09:52:11;15.93;;;11.50;;
29504;SDS011;16452;54.174;12.092;2022-08-16T09:54:37;12.65;;;11.20;;
29504;SDS011;16452;54.174;12.092;2022-08-16T09:57:04;13.82;;;11.23;;
29504;SDS011;16452;54.174;12.092;2022-08-16T09:59:31;16.15;;;13.02;;
29504;SDS011;16452;54.174;12.092;2022-08-16T10:01:58;19.35;;;17.15;;
29504;SDS011;16452;54.174;12.092;2022-08-16T10:04:24;18.63;;;16.65;;
29504;SDS011;16452;54.174;12.092;2022-08-16T10:06:52;21.77;;;18.67;;
29504;SDS011;16452;54.174;12.092;2022-08-16T10:09:21;27.77;;;21.35;;
29504;SDS011;16452;54.174;12.092;2022-08-16T10:11:47;26.38;;;22.23;;
29504;SDS011;16452;54.174;12.092;2022-08-16T10:14:32;26.35;;;22.23;;
29504;SDS011;16452;54.174;12.092;2022-08-16T10:16:59;28.50;;;22.63;;
29504;SDS011;16452;54.174;12.092;2022-08-16T10:19:28;24.02;;;21.35;;
29504;SDS011;16452;54.174;12.092;2022-08-16T10:21:55;28.60;;;23.67;;
29504;SDS011;16452;54.174;12.092;2022-08-16T10:24:21;26.42;;;23.58;;
29504;SDS011;16452;54.174;12.092;2022-08-16T10:26:48;28.17;;;22.92;;
29504;SDS011;16452;54.174;12.092;2022-08-16T10:29:14;26.60;;;23.65;;
29504;SDS011;16452;54.174;12.092;2022-08-16T10:31:41;28.02;;;24.30;;
29504;SDS011;16452;54.174;12.092;2022-08-16T10:34:07;30.83;;;25.05;;
29504;SDS011;16452;54.174;12.092;2022-08-16T10:36:33;29.30;;;25.35;;
29504;SDS011;16452;54.174;12.092;2022-08-16T10:38:59;32.17;;;24.30;;
29504;SDS011;16452;54.174;12.092;2022-08-16T10:41:25;26.40;;;23.40;;
29504;SDS011;16452;54.174;12.092;2022-08-16T10:43:51;26.88;;;22.80;;
29504;SDS011;16452;54.174;12.092;2022-08-16T10:46:17;33.85;;;21.45;;
29504;SDS011;16452;54.174;12.092;2022-08-16T10:48:43;25.05;;;19.77;;
29504;SDS011;16452;54.174;12.092;2022-08-16T10:51:10;26.55;;;20.15;;
29504;SDS011;16452;54.174;12.092;2022-08-16T10:53:37;22.55;;;17.77;;
29504;SDS011;16452;54.174;12.092;2022-08-16T10:56:04;24.70;;;19.45;;
29504;SDS011;16452;54.174;12.092;2022-08-16T10:58:35;20.75;;;18.55;;
29504;SDS011;16452;54.174;12.092;2022-08-16T11:01:03;28.33;;;19.77;;
29504;SDS011;16452;54.174;12.092;2022-08-16T11:03:30;19.85;;;17.58;;
29504;SDS011;16452;54.174;12.092;2022-08-16T11:05:57;21.27;;;18.98;;
29504;SDS011;16452;54.174;12.092;2022-08-16T11:08:23;22.10;;;18.80;;
29504;SDS011;16452;54.174;12.092;2022-08-16T11:10:50;22.95;;;18.70;;
29504;SDS011;16452;54.174;12.092;2022-08-16T11:13:17;27.20;;;16.50;;
29504;SDS011;16452;54.174;12.092;2022-08-16T11:15:47;22.08;;;17.40;;
29504;SDS011;16452;54.174;12.092;2022-08-16T11:18:13;18.77;;;16.67;;
29504;SDS011;16452;54.174;12.092;2022-08-16T11:20:39;21.58;;;17.80;;
29504;SDS011;16452;54.174;12.092;2022-08-16T11:23:09;19.40;;;16.48;;
29504;SDS011;16452;54.174;12.092;2022-08-16T11:25:35;20.10;;;15.57;;
29504;SDS011;16452;54.174;12.092;2022-08-16T11:28:03;21.88;;;16.15;;
29504;SDS011;16452;54.174;12.092;2022-08-16T11:30:30;19.70;;;15.75;;
29504;SDS011;16452;54.174;12.092;2022-08-16T11:32:57;21.65;;;17.02;;
29504;SDS011;16452;54.174;12.092;2022-08-16T11:35:25;18.67;;;15.40;;
29504;SDS011;16452;54.174;12.092;2022-08-16T11:37:56;16.83;;;15.13;;
29504;SDS011;16452;54.174;12.092;2022-08-16T11:40:43;16.88;;;14.50;;
29504;SDS011;16452;54.174;12.092;2022-08-16T11:43:20;16.17;;;13.25;;
29504;SDS011;16452;54.174;12.092;2022-08-16T11:45:50;23.75;;;18.52;;
29504;SDS011;16452;54.174;12.092;2022-08-16T11:48:17;16.33;;;11.82;;
29504;SDS011;16452;54.174;12.092;2022-08-16T11:50:44;17.17;;;11.40;;
29504;SDS011;16452;54.174;12.092;2022-08-16T11:53:11;13.55;;;12.15;;
29504;SDS011;16452;54.174;12.092;2022-08-16T11:55:39;14.85;;;10.50;;
29504;SDS011;16452;54.174;12.092;2022-08-16T11:58:06;16.08;;;10.73;;
29504;SDS011;16452;54.174;12.092;2022-08-16T12:00:34;12.18;;;10.85;;
29504;SDS011;16452;54.174;12.092;2022-08-16T12:03:01;15.48;;;10.77;;
29504;SDS011;16452;54.174;12.092;2022-08-16T12:05:27;17.08;;;10.05;;
29504;SDS011;16452;54.174;12.092;2022-08-16T12:07:55;13.98;;;10.63;;
29504;SDS011;16452;54.174;12.092;2022-08-16T12:10:27;14.20;;;11.70;;
29504;SDS011;16452;54.174;12.092;2022-08-16T12:12:53;15.68;;;12.48;;
29504;SDS011;16452;54.174;12.092;2022-08-16T12:15:19;17.00;;;11.55;;
29504;SDS011;16452;54.174;12.092;2022-08-16T12:17:45;14.57;;;11.35;;
29504;SDS011;16452;54.174;12.092;2022-08-16T12:20:14;13.45;;;10.15;;
29504;SDS011;16452;54.174;12.092;2022-08-16T12:22:44;13.85;;;10.13;;
29504;SDS011;16452;54.174;12.092;2022-08-16T12:25:11;12.38;;;10.13;;
29504;SDS011;16452;54.174;12.092;2022-08-16T12:27:40;17.50;;;10.70;;
29504;SDS011;16452;54.174;12.092;2022-08-16T12:30:09;14.25;;;11.57;;
29504;SDS011;16452;54.174;12.092;2022-08-16T12:32:37;15.75;;;11.93;;
29504;SDS011;16452;54.174;12.092;2022-08-16T12:35:08;15.10;;;12.10;;
29504;SDS011;16452;54.174;12.092;2022-08-16T12:37:38;16.15;;;11.93;;
29504;SDS011;16452;54.174;12.092;2022-08-16T12:40:08;17.80;;;11.00;;
29504;SDS011;16452;54.174;12.092;2022-08-16T12:42:38;13.68;;;10.98;;
29504;SDS011;16452;54.174;12.092;2022-08-16T12:45:05;16.67;;;10.60;;
29504;SDS011;16452;54.174;12.092;2022-08-16T12:47:36;17.02;;;12.40;;
29504;SDS011;16452;54.174;12.092;2022-08-16T12:50:20;19.30;;;11.90;;
29504;SDS011;16452;54.174;12.092;2022-08-16T12:52:47;16.00;;;12.25;;
29504;SDS011;16452;54.174;12.092;2022-08-16T12:55:12;16.27;;;13.10;;
29504;SDS011;16452;54.174;12.092;2022-08-16T12:57:40;20.17;;;14.45;;
29504;SDS011;16452;54.174;12.092;2022-08-16T13:00:08;16.25;;;13.30;;
29504;SDS011;16452;54.174;12.092;2022-08-16T13:02:41;19.80;;;13.95;;
29504;SDS011;16452;54.174;12.092;2022-08-16T13:05:08;19.42;;;13.30;;
29504;SDS011;16452;54.174;12.092;2022-08-16T13:07:35;18.13;;;12.38;;
29504;SDS011;16452;54.174;12.092;2022-08-16T13:10:03;15.10;;;10.88;;
29504;SDS011;16452;54.174;12.092;2022-08-16T13:12:39;11.75;;;10.48;;
29504;SDS011;16452;54.174;12.092;2022-08-16T13:15:10;21.27;;;10.38;;
29504;SDS011;16452;54.174;12.092;2022-08-16T13:17:40;12.93;;;10.63;;
29504;SDS011;16452;54.174;12.092;2022-08-16T13:20:07;14.07;;;9.90;;
29504;SDS011;16452;54.174;12.092;2022-08-16T13:22:42;13.88;;;10.15;;
29504;SDS011;16452;54.174;12.092;2022-08-16T13:25:30;16.17;;;10.80;;
29504;SDS011;16452;54.174;12.092;2022-08-16T13:27:58;12.80;;;10.48;;
29504;SDS011;16452;54.174;12.092;2022-08-16T13:30:25;16.95;;;10.95;;
29504;SDS011;16452;54.174;12.092;2022-08-16T13:32:53;11.60;;;10.40;;
29504;SDS011;16452;54.174;12.092;2022-08-16T13:35:25;17.10;;;9.43;;
29504;SDS011;16452;54.174;12.092;2022-08-16T13:37:51;16.40;;;10.02;;
29504;SDS011;16452;54.174;12.092;2022-08-16T13:40:17;10.63;;;8.90;;
29504;SDS011;16452;54.174;12.092;2022-08-16T13:42:45;10.73;;;7.40;;
29504;SDS011;16452;54.174;12.092;2022-08-16T13:45:12;10.45;;;8.43;;
29504;SDS011;16452;54.174;12.092;2022-08-16T13:47:40;10.75;;;7.70;;
29504;SDS011;16452;54.174;12.092;2022-08-16T13:50:06;12.40;;;10.50;;
29504;SDS011;16452;54.174;12.092;2022-08-16T13:52:33;10.10;;;7.60;;
29504;SDS011;16452;54.174;12.092;2022-08-16T13:54:59;11.60;;;8.48;;
29504;SDS011;16452;54.174;12.092;2022-08-16T13:57:25;12.13;;;8.10;;
29504;SDS011;16452;54.174;12.092;2022-08-16T13:59:51;10.45;;;8.00;;
29504;SDS011;16452;54.174;12.092;2022-08-16T14:02:17;17.80;;;8.30;;
29504;SDS011;16452;54.174;12.092;2022-08-16T14:04:43;12.05;;;8.57;;
29504;SDS011;16452;54.174;12.092;2022-08-16T14:07:12;15.77;;;9.50;;
29504;SDS011;16452;54.174;12.092;2022-08-16T14:09:40;13.70;;;9.50;;
29504;SDS011;16452;54.174;12.092;2022-08-16T14:12:17;13.65;;;9.90;;
29504;SDS011;16452;54.174;12.092;2022-08-16T14:14:47;11.82;;;9.13;;
29504;SDS011;16452;54.174;12.092;2022-08-16T14:17:15;11.63;;;9.35;;
29504;SDS011;16452;54.174;12.092;2022-08-16T14:19:43;14.90;;;9.57;;
29504;SDS011;16452;54.174;12.092;2022-08-16T14:22:13;12.45;;;9.93;;
29504;SDS011;16452;54.174;12.092;2022-08-16T14:24:52;14.98;;;8.77;;
29504;SDS011;16452;54.174;12.092;2022-08-16T14:27:21;13.13;;;8.30;;
29504;SDS011;16452;54.174;12.092;2022-08-16T14:29:50;12.13;;;8.77;;